createdAt,value
2022-10-21T00:00:59.796Z,91.57
2022-10-21T00:03:27.830Z,92.29
2022-10-21T00:05:54.883Z,91.05
2022-10-21T00:08:22.126Z,92.08
2022-10-21T00:10:54.649Z,92.63
2022-10-21T00:13:23.428Z,90.95
2022-10-21T00:16:04.334Z,91.28
2022-10-21T00:18:33.472Z,91.62
2022-10-21T00:21:01.495Z,91.51
2022-10-21T00:23:28.520Z,91.68
2022-10-21T00:25:59.099Z,91.97
2022-10-21T00:28:27.067Z,91.64
2022-10-21T00:30:54.506Z,90.68
2022-10-21T00:33:21.786Z,91.43
2022-10-21T00:35:57.431Z,91.21
2022-10-21T00:38:24.747Z,91.51
2022-10-21T00:40:51.786Z,91.57
2022-10-21T00:43:18.735Z,91.46
2022-10-21T00:45:48.046Z,91.49
2022-10-21T00:48:31.918Z,91.55
2022-10-21T00:51:16.276Z,91.32
2022-10-21T00:53:49.378Z,92.70
2022-10-21T00:56:24.555Z,91.51
2022-10-21T00:58:54.502Z,91.11
2022-10-21T01:01:22.610Z,91.40
2022-10-21T01:03:50.492Z,91.04
2022-10-21T01:06:19.543Z,90.86
2022-10-21T01:08:46.595Z,91.48
2022-10-21T01:11:18.130Z,91.65
2022-10-21T01:14:20.542Z,92.27
2022-10-21T01:17:26.307Z,92.29
2022-10-21T01:20:36.986Z,92.11
2022-10-21T01:23:41.705Z,91.43
2022-10-21T01:26:42.987Z,92.51
2022-10-21T01:29:25.155Z,92.48
2022-10-21T01:32:02.330Z,92.28
2022-10-21T01:34:42.020Z,91.95
2022-10-21T01:37:15.203Z,91.62
2022-10-21T01:39:50.032Z,92.12
2022-10-21T01:42:40.109Z,91.62
2022-10-21T01:45:18.005Z,91.43
2022-10-21T01:47:50.261Z,92.51
2022-10-21T01:50:24.993Z,92.42
2022-10-21T01:52:59.628Z,92.06
2022-10-21T01:55:30.848Z,90.84
2022-10-21T01:58:24.340Z,91.77
2022-10-21T02:00:54.505Z,91.55
2022-10-21T02:03:25.465Z,91.61
2022-10-21T02:05:53.036Z,91.16
2022-10-21T02:08:20.641Z,91.03
2022-10-21T02:10:51.067Z,90.60
2022-10-21T02:13:25.327Z,91.95
2022-10-21T02:15:58.847Z,90.87
2022-10-21T02:18:27.001Z,91.80
2022-10-21T02:20:57.479Z,91.52
2022-10-21T02:23:36.568Z,91.08
2022-10-21T02:26:03.888Z,91.00
2022-10-21T02:28:31.284Z,91.93
2022-10-21T02:31:05.866Z,91.18
2022-10-21T02:33:57.525Z,91.73
2022-10-21T02:36:36.207Z,90.81
2022-10-21T02:39:12.970Z,90.72
2022-10-21T02:41:42.229Z,91.13
2022-10-21T02:44:09.799Z,90.80
2022-10-21T02:46:48.270Z,90.76
2022-10-21T02:49:17.722Z,90.30
2022-10-21T02:51:46.133Z,91.33
2022-10-21T02:54:13.980Z,91.56
2022-10-21T02:56:41.161Z,90.29
2022-10-21T02:59:09.096Z,90.57
2022-10-21T03:01:36.010Z,90.87
2022-10-21T03:04:03.284Z,91.32
2022-10-21T03:06:30.469Z,90.77
2022-10-21T03:08:57.402Z,91.28
2022-10-21T03:11:24.448Z,90.45
2022-10-21T03:13:51.687Z,90.38
2022-10-21T03:18:50.389Z,91.03
2022-10-21T03:21:17.461Z,90.52
2022-10-21T03:23:44.391Z,90.96
2022-10-21T03:26:11.651Z,90.93
2022-10-21T03:28:39.746Z,91.10
2022-10-21T03:31:06.834Z,90.60
2022-10-21T03:33:33.719Z,89.94
2022-10-21T03:36:01.126Z,90.33
2022-10-21T03:38:28.115Z,90.14
2022-10-21T03:40:55.108Z,90.50
2022-10-21T03:43:22.160Z,90.01
2022-10-21T03:45:49.103Z,90.09
2022-10-21T03:48:16.377Z,90.19
2022-10-21T03:50:43.316Z,90.65
2022-10-21T03:53:24.461Z,90.90
2022-10-21T03:55:57.880Z,90.52
2022-10-21T03:58:25.887Z,90.07
2022-10-21T04:00:53.984Z,90.33
2022-10-21T04:03:21.545Z,90.90
2022-10-21T04:05:48.918Z,90.68
2022-10-21T04:08:16.061Z,91.11
2022-10-21T04:10:45.343Z,90.49
2022-10-21T04:13:12.414Z,90.37
2022-10-21T04:15:39.378Z,90.05
2022-10-21T04:18:07.801Z,89.96
2022-10-21T04:20:35.202Z,91.14
2022-10-21T04:23:02.881Z,91.24
2022-10-21T04:25:29.838Z,91.36
2022-10-21T04:27:59.912Z,91.92
2022-10-21T04:30:26.856Z,91.83
2022-10-21T04:32:54.171Z,91.29
2022-10-21T04:35:21.598Z,91.71
2022-10-21T04:37:48.786Z,91.14
2022-10-21T04:40:16.043Z,91.63
2022-10-21T04:42:47.978Z,91.14
2022-10-21T04:45:15.177Z,91.30
2022-10-21T04:47:42.342Z,91.13
2022-10-21T04:50:10.253Z,91.18
2022-10-21T04:52:38.427Z,91.80
2022-10-21T04:55:06.317Z,90.81
2022-10-21T04:57:33.405Z,90.78
2022-10-21T05:00:00.287Z,90.75
2022-10-21T05:02:27.389Z,90.76
2022-10-21T05:04:54.340Z,90.97
2022-10-21T05:07:21.367Z,91.89
2022-10-21T05:09:48.572Z,92.02
2022-10-21T05:12:15.886Z,91.92
2022-10-21T05:14:43.066Z,92.47
2022-10-21T05:17:10.303Z,92.68
2022-10-21T05:19:37.349Z,91.45
2022-10-21T05:22:04.558Z,91.79
2022-10-21T05:24:31.500Z,91.16
2022-10-21T05:26:58.411Z,92.20
2022-10-21T05:29:25.317Z,91.54
2022-10-21T05:31:52.455Z,92.33
2022-10-21T05:34:19.652Z,91.88
2022-10-21T05:36:49.104Z,92.05
2022-10-21T05:39:16.201Z,92.65
2022-10-21T05:41:45.556Z,92.24
2022-10-21T05:44:14.949Z,92.91
2022-10-21T05:46:42.079Z,91.87
2022-10-21T05:49:09.080Z,92.31
2022-10-21T05:51:36.277Z,92.49
2022-10-21T05:54:05.764Z,93.18
2022-10-21T05:56:33.457Z,92.89
2022-10-21T05:59:00.689Z,93.61
2022-10-21T06:01:27.748Z,93.27
2022-10-21T06:03:54.960Z,94.41
2022-10-21T06:06:22.190Z,96.41
2022-10-21T06:08:49.551Z,98.23
2022-10-21T06:11:19.435Z,98.33
2022-10-21T06:13:46.794Z,98.40
2022-10-21T06:16:15.254Z,98.20
2022-10-21T06:18:43.172Z,97.89
2022-10-21T06:21:10.996Z,98.22
2022-10-21T06:23:38.842Z,98.96
2022-10-21T06:26:08.901Z,98.82
2022-10-21T06:28:37.561Z,100.00
2022-10-21T06:31:06.029Z,100.00
2022-10-21T06:33:34.185Z,100.00
2022-10-21T06:36:01.983Z,100.00
2022-10-21T06:38:28.957Z,100.00
2022-10-21T06:41:07.908Z,99.96
2022-10-21T06:43:37.640Z,99.46
2022-10-21T06:46:12.081Z,97.37
2022-10-21T06:48:39.713Z,96.35
2022-10-21T06:51:16.497Z,95.19
2022-10-21T06:53:44.498Z,93.92
2022-10-21T06:56:12.893Z,91.77
2022-10-21T06:58:43.562Z,89.93
2022-10-21T07:01:21.677Z,87.25
2022-10-21T07:03:59.704Z,86.42
2022-10-21T07:06:27.003Z,83.81
2022-10-21T07:08:58.304Z,82.09
2022-10-21T07:11:26.763Z,80.84
2022-10-21T07:13:53.687Z,80.18
2022-10-21T07:16:28.545Z,80.07
2022-10-21T07:18:56.504Z,78.35
2022-10-21T07:21:24.839Z,78.37
2022-10-21T07:23:54.726Z,77.33
2022-10-21T07:26:25.298Z,76.46
2022-10-21T07:28:52.592Z,77.05
2022-10-21T07:31:21.787Z,75.22
2022-10-21T07:33:49.343Z,73.80
2022-10-21T07:36:27.123Z,72.52
2022-10-21T07:38:55.334Z,70.74
2022-10-21T07:41:25.426Z,69.99
2022-10-21T07:43:53.955Z,69.49
2022-10-21T07:46:22.211Z,68.83
2022-10-21T07:48:50.191Z,67.38
2022-10-21T07:51:20.305Z,66.39
2022-10-21T07:53:49.691Z,65.32
2022-10-21T07:56:19.691Z,64.54
2022-10-21T07:58:49.208Z,62.49
2022-10-21T08:01:17.996Z,62.09
2022-10-21T08:03:45.806Z,62.18
2022-10-21T08:06:15.054Z,60.16
2022-10-21T08:08:42.453Z,59.40
2022-10-21T08:11:09.976Z,59.25
2022-10-21T08:13:40.912Z,58.65
2022-10-21T08:16:08.233Z,58.50
2022-10-21T08:18:35.113Z,59.09
2022-10-21T08:21:04.754Z,59.47
2022-10-21T08:23:31.915Z,58.87
2022-10-21T08:26:03.856Z,58.79
2022-10-21T08:28:31.733Z,56.77
2022-10-21T08:31:09.397Z,55.11
2022-10-21T08:33:37.027Z,54.98
2022-10-21T08:36:10.022Z,55.74
2022-10-21T08:38:37.299Z,55.93
2022-10-21T08:41:20.241Z,54.32
2022-10-21T08:43:47.632Z,52.72
2022-10-21T08:46:19.991Z,52.82
2022-10-21T08:49:20.186Z,52.66
2022-10-21T08:51:56.016Z,51.21
2022-10-21T08:54:31.547Z,50.81
2022-10-21T08:57:01.089Z,49.74
2022-10-21T08:59:28.210Z,49.39
2022-10-21T09:02:42.973Z,49.33
2022-10-21T09:05:18.566Z,50.21
2022-10-21T09:08:00.623Z,47.43
2022-10-21T09:10:37.576Z,46.90
2022-10-21T09:13:25.674Z,47.11
2022-10-21T09:16:10.582Z,45.67
2022-10-21T09:19:01.334Z,46.36
2022-10-21T09:22:16.204Z,46.00
2022-10-21T09:25:03.587Z,46.55
2022-10-21T09:27:51.288Z,45.80
2022-10-21T09:30:25.095Z,45.53
2022-10-21T09:32:58.115Z,45.76
2022-10-21T09:35:37.277Z,45.70
2022-10-21T09:38:07.290Z,44.85
2022-10-21T09:40:35.010Z,46.18
2022-10-21T09:43:02.535Z,44.70
2022-10-21T09:45:34.497Z,44.34
2022-10-21T09:48:06.068Z,44.75
2022-10-21T09:50:35.084Z,44.66
2022-10-21T09:53:08.924Z,45.37
2022-10-21T09:55:39.165Z,44.84
2022-10-21T09:58:06.673Z,43.84
2022-10-21T10:00:49.468Z,43.88
2022-10-21T10:03:38.297Z,43.35
2022-10-21T10:06:06.891Z,42.53
2022-10-21T10:08:48.274Z,42.87
2022-10-21T10:11:19.189Z,43.52
2022-10-21T10:13:51.927Z,43.44
2022-10-21T10:16:31.541Z,42.86
2022-10-21T10:19:23.640Z,42.17
2022-10-21T10:22:14.296Z,42.00
2022-10-21T10:24:43.346Z,42.06
2022-10-21T10:27:30.529Z,41.29
2022-10-21T10:30:00.297Z,41.89
2022-10-21T10:32:34.505Z,41.63
2022-10-21T10:35:05.033Z,40.88
2022-10-21T10:37:35.679Z,40.75
2022-10-21T10:40:07.185Z,39.88
2022-10-21T10:42:41.780Z,39.06
2022-10-21T10:45:19.842Z,39.98
2022-10-21T10:48:00.741Z,38.59
2022-10-21T10:50:48.019Z,40.39
2022-10-21T10:53:36.983Z,39.88
2022-10-21T10:56:03.833Z,39.06
2022-10-21T10:58:36.669Z,38.44
2022-10-21T11:01:13.911Z,38.89
2022-10-21T11:03:51.253Z,38.33
2022-10-21T11:06:22.034Z,38.78
2022-10-21T11:08:54.602Z,38.59
2022-10-21T11:11:37.443Z,37.50
2022-10-21T11:14:04.456Z,39.03
2022-10-21T11:16:57.249Z,37.73
2022-10-21T11:19:35.821Z,38.33
2022-10-21T11:22:28.043Z,38.60
2022-10-21T11:25:07.645Z,38.34
2022-10-21T11:27:58.083Z,38.39
2022-10-21T11:30:50.163Z,38.00
2022-10-21T11:33:36.224Z,38.56
2022-10-21T11:36:12.263Z,39.74
2022-10-21T11:39:05.118Z,37.87
2022-10-21T11:41:33.693Z,39.71
2022-10-21T11:44:12.705Z,39.43
2022-10-21T11:47:20.734Z,39.45
2022-10-21T11:50:18.222Z,39.33
2022-10-21T11:53:13.239Z,39.33
2022-10-21T11:56:10.798Z,40.23
2022-10-21T11:59:21.010Z,39.17
2022-10-21T12:02:17.785Z,39.10
2022-10-21T12:04:48.383Z,39.46
2022-10-21T12:07:36.209Z,39.27
2022-10-21T12:10:30.545Z,39.84
2022-10-21T12:13:02.966Z,39.73
2022-10-21T12:15:41.747Z,40.79
2022-10-21T12:18:16.322Z,40.02
2022-10-21T12:20:47.164Z,39.49
2022-10-21T12:23:18.750Z,40.24
2022-10-21T12:26:00.437Z,41.61
2022-10-21T12:28:39.339Z,40.60
2022-10-21T12:31:26.795Z,41.37
2022-10-21T12:33:53.904Z,40.56
2022-10-21T12:36:39.214Z,41.19
2022-10-21T12:39:17.090Z,41.66
2022-10-21T12:41:47.899Z,40.75
2022-10-21T12:44:22.672Z,41.07
2022-10-21T12:46:55.784Z,41.36
2022-10-21T12:49:30.948Z,41.53
2022-10-21T12:52:02.944Z,41.53
2022-10-21T12:54:35.030Z,41.15
2022-10-21T12:57:09.186Z,41.88
2022-10-21T12:59:39.968Z,41.03
2022-10-21T13:02:08.270Z,42.02
2022-10-21T13:04:35.168Z,41.52
2022-10-21T13:07:04.436Z,41.19
2022-10-21T13:09:52.427Z,40.81
2022-10-21T13:12:24.940Z,41.44
2022-10-21T13:14:54.077Z,41.34
2022-10-21T13:17:21.314Z,42.25
2022-10-21T13:19:50.647Z,42.69
2022-10-21T13:22:36.231Z,41.67
2022-10-21T13:25:24.486Z,41.76
2022-10-21T13:27:53.824Z,42.20
2022-10-21T13:30:31.332Z,42.17
2022-10-21T13:33:21.182Z,42.45
2022-10-21T13:35:53.603Z,42.32
2022-10-21T13:38:33.480Z,42.27
2022-10-21T13:41:04.203Z,43.10
2022-10-21T13:43:50.271Z,42.68
2022-10-21T13:46:22.233Z,42.60
2022-10-21T13:48:49.726Z,43.12
2022-10-21T13:51:26.199Z,43.37
2022-10-21T13:54:00.884Z,43.09
2022-10-21T13:56:36.347Z,43.24
2022-10-21T13:59:05.116Z,43.19
2022-10-21T14:01:46.715Z,43.77
2022-10-21T14:04:26.075Z,43.21
2022-10-21T14:07:08.385Z,45.37
2022-10-21T14:09:46.018Z,45.15
2022-10-21T14:12:21.994Z,45.75
2022-10-21T14:14:55.485Z,45.89
2022-10-21T14:17:29.283Z,45.91
2022-10-21T14:20:06.745Z,46.85
2022-10-21T14:22:34.160Z,46.85
2022-10-21T14:25:02.717Z,47.39
2022-10-21T14:27:35.682Z,47.07
2022-10-21T14:30:06.880Z,47.96
2022-10-21T14:32:35.163Z,47.82
2022-10-21T14:35:13.107Z,50.36
2022-10-21T14:37:55.093Z,48.22
2022-10-21T14:40:41.868Z,49.37
2022-10-21T14:43:23.705Z,49.64
2022-10-21T14:45:53.121Z,49.74
2022-10-21T14:48:29.430Z,49.91
2022-10-21T14:51:03.130Z,50.64
2022-10-21T14:53:35.055Z,50.17
2022-10-21T14:56:07.932Z,50.50
2022-10-21T14:58:39.407Z,51.07
2022-10-21T15:01:15.111Z,51.64
2022-10-21T15:03:45.573Z,51.70
2022-10-21T15:06:12.560Z,53.13
2022-10-21T15:08:44.496Z,54.05
2022-10-21T15:11:19.060Z,55.09
2022-10-21T15:14:26.107Z,56.46
2022-10-21T15:16:54.615Z,58.17
2022-10-21T15:19:45.346Z,59.05
2022-10-21T15:22:26.977Z,60.72
2022-10-21T15:25:00.228Z,61.93
2022-10-21T15:27:36.604Z,62.13
2022-10-21T15:30:18.259Z,62.55
2022-10-21T15:32:45.939Z,62.86
2022-10-21T15:35:18.820Z,63.86
2022-10-21T15:37:53.198Z,64.68
2022-10-21T15:40:22.117Z,64.97
2022-10-21T15:42:50.024Z,65.53
2022-10-21T15:45:20.589Z,66.19
2022-10-21T15:47:55.385Z,66.88
2022-10-21T15:50:26.032Z,67.89
2022-10-21T15:52:53.758Z,68.44
2022-10-21T15:55:21.097Z,68.92
2022-10-21T15:57:48.076Z,68.56
2022-10-21T16:00:20.352Z,69.83
2022-10-21T16:02:52.198Z,70.19
2022-10-21T16:05:20.007Z,70.92
2022-10-21T16:07:47.523Z,71.67
2022-10-21T16:10:20.114Z,71.95
2022-10-21T16:12:49.483Z,72.20
2022-10-21T16:15:18.110Z,72.38
2022-10-21T16:17:49.109Z,73.23
2022-10-21T16:20:24.264Z,73.09
2022-10-21T16:22:52.018Z,73.35
2022-10-21T16:25:20.092Z,74.11
2022-10-21T16:27:55.974Z,74.25
2022-10-21T16:30:37.142Z,75.03
2022-10-21T16:33:04.636Z,75.68
2022-10-21T16:35:32.253Z,76.76
2022-10-21T16:37:59.628Z,76.14
2022-10-21T16:40:31.970Z,76.58
2022-10-21T16:42:59.296Z,77.47
2022-10-21T16:45:30.855Z,78.44
2022-10-21T16:48:00.488Z,78.56
2022-10-21T16:50:34.773Z,79.29
2022-10-21T16:53:02.744Z,79.22
2022-10-21T16:55:29.520Z,79.31
2022-10-21T16:57:56.832Z,79.38
2022-10-21T17:00:23.820Z,79.61
2022-10-21T17:02:51.700Z,79.64
2022-10-21T17:05:19.158Z,80.00
2022-10-21T17:07:46.260Z,80.45
2022-10-21T17:10:14.324Z,80.55
2022-10-21T17:12:41.189Z,81.12
2022-10-21T17:15:09.442Z,81.35
2022-10-21T17:17:36.855Z,81.77
2022-10-21T17:20:04.490Z,82.26
2022-10-21T17:22:31.631Z,82.43
2022-10-21T17:24:58.887Z,82.82
2022-10-21T17:27:26.038Z,83.42
2022-10-21T17:29:53.214Z,82.42
2022-10-21T17:32:20.333Z,83.49
2022-10-21T17:34:47.497Z,83.56
2022-10-21T17:37:14.492Z,83.51
2022-10-21T17:39:41.475Z,84.06
2022-10-21T17:42:14.915Z,84.74
2022-10-21T17:44:41.886Z,84.11
2022-10-21T17:47:10.307Z,84.54
2022-10-21T17:49:37.407Z,84.53
2022-10-21T17:52:04.462Z,84.15
2022-10-21T17:54:32.743Z,84.18
2022-10-21T17:57:02.249Z,84.10
2022-10-21T17:59:29.504Z,84.24
2022-10-21T18:01:56.406Z,84.93
2022-10-21T18:04:23.490Z,84.75
2022-10-21T18:06:50.840Z,85.15
2022-10-21T18:09:18.461Z,85.48
2022-10-21T18:11:45.841Z,85.52
2022-10-21T18:14:14.515Z,85.16
2022-10-21T18:16:41.751Z,85.40
2022-10-21T18:19:09.288Z,85.29
2022-10-21T18:21:36.368Z,85.35
2022-10-21T18:24:04.865Z,85.96
2022-10-21T18:26:33.655Z,86.27
2022-10-21T18:29:02.655Z,85.91
2022-10-21T18:31:33.170Z,86.27
2022-10-21T18:34:01.922Z,85.75
2022-10-21T18:36:29.216Z,85.95
2022-10-21T18:38:59.197Z,86.33
2022-10-21T18:41:26.662Z,86.19
2022-10-21T18:43:54.987Z,86.83
2022-10-21T18:46:23.183Z,87.01
2022-10-21T18:48:50.731Z,86.51
2022-10-21T18:51:19.829Z,86.82
2022-10-21T18:53:50.180Z,86.34
2022-10-21T18:56:22.120Z,86.46
2022-10-21T18:58:50.131Z,87.17
2022-10-21T19:01:17.804Z,86.49
2022-10-21T19:03:45.258Z,87.23
2022-10-21T19:06:29.693Z,87.04
2022-10-21T19:08:57.615Z,87.34
2022-10-21T19:11:25.464Z,88.04
2022-10-21T19:13:52.397Z,89.27
2022-10-21T19:16:19.717Z,88.97
2022-10-21T19:18:47.128Z,89.35
2022-10-21T19:21:20.282Z,88.50
2022-10-21T19:23:47.937Z,88.96
2022-10-21T19:26:18.737Z,86.90
2022-10-21T19:28:47.325Z,88.21
2022-10-21T19:31:15.351Z,87.99
2022-10-21T19:33:42.193Z,88.97
2022-10-21T19:36:11.123Z,89.96
2022-10-21T19:38:44.115Z,89.92
2022-10-21T19:41:15.629Z,90.27
2022-10-21T19:43:42.819Z,89.78
2022-10-21T19:46:14.704Z,88.91
2022-10-21T19:48:41.778Z,89.06
2022-10-21T19:51:15.180Z,89.58
2022-10-21T19:53:45.405Z,89.83
2022-10-21T19:56:14.457Z,89.89
2022-10-21T19:58:44.099Z,90.13
2022-10-21T20:01:13.416Z,88.53
2022-10-21T20:03:44.597Z,88.51
2022-10-21T20:06:16.443Z,89.53
2022-10-21T20:08:47.012Z,89.11
2022-10-21T20:11:16.750Z,89.68
2022-10-21T20:13:45.335Z,88.40
2022-10-21T20:16:24.727Z,88.82
2022-10-21T20:18:52.006Z,88.93
2022-10-21T20:21:19.331Z,89.80
2022-10-21T20:23:46.533Z,88.76
2022-10-21T20:26:13.447Z,88.09
2022-10-21T20:28:40.402Z,89.73
2022-10-21T20:31:15.892Z,88.29
2022-10-21T20:33:52.905Z,89.23
2022-10-21T20:36:29.790Z,89.67
2022-10-21T20:39:00.317Z,89.79
2022-10-21T20:41:33.847Z,90.85
2022-10-21T20:44:03.196Z,90.50
2022-10-21T20:46:35.282Z,91.51
2022-10-21T20:49:07.104Z,91.32
2022-10-21T20:51:36.500Z,92.46
2022-10-21T20:54:09.008Z,91.10
2022-10-21T20:56:39.487Z,91.72
2022-10-21T20:59:08.474Z,92.51
2022-10-21T21:01:41.568Z,91.92
2022-10-21T21:04:11.641Z,92.51
2022-10-21T21:06:44.764Z,92.23
2022-10-21T21:12:00.647Z,92.98
2022-10-21T21:14:27.644Z,92.79
2022-10-21T21:16:57.270Z,92.15
2022-10-21T21:19:24.987Z,92.41
2022-10-21T21:21:51.956Z,91.16
2022-10-21T21:24:18.910Z,91.74
2022-10-21T21:26:46.452Z,91.93
2022-10-21T21:29:14.271Z,92.40
2022-10-21T21:31:42.310Z,92.80
2022-10-21T21:34:09.907Z,91.70
2022-10-21T21:36:37.455Z,92.22
2022-10-21T21:39:06.431Z,92.23
2022-10-21T21:41:34.118Z,91.71
2022-10-21T21:44:01.212Z,91.85
2022-10-21T21:46:28.487Z,92.99
2022-10-21T21:49:04.651Z,92.21
2022-10-21T21:51:34.822Z,92.37
2022-10-21T21:54:03.424Z,92.84
2022-10-21T21:56:30.597Z,92.99
2022-10-21T21:58:58.312Z,92.78
2022-10-21T22:01:27.967Z,93.16
2022-10-21T22:03:56.925Z,92.00
2022-10-21T22:08:59.229Z,92.62
2022-10-21T22:11:29.513Z,93.12
2022-10-21T22:13:56.637Z,92.48
2022-10-21T22:16:26.058Z,92.62
2022-10-21T22:18:54.722Z,91.11
2022-10-21T22:21:22.010Z,91.87
2022-10-21T22:23:50.389Z,93.56
2022-10-21T22:26:20.502Z,92.42
2022-10-21T22:28:47.752Z,92.60
2022-10-21T22:31:17.223Z,93.99
2022-10-21T22:33:46.616Z,93.23
2022-10-21T22:36:16.720Z,92.99
2022-10-21T22:38:44.921Z,92.97
2022-10-21T22:41:12.870Z,93.04
2022-10-21T22:43:40.209Z,92.96
2022-10-21T22:46:22.069Z,93.66
2022-10-21T22:48:54.668Z,93.70
2022-10-21T22:51:21.823Z,93.38
2022-10-21T22:53:53.570Z,93.00
2022-10-21T22:56:27.918Z,93.29
2022-10-21T22:58:55.416Z,93.10
2022-10-21T23:01:24.261Z,94.23
2022-10-21T23:03:51.852Z,93.78
2022-10-21T23:06:19.035Z,94.32
2022-10-21T23:08:46.011Z,93.95
2022-10-21T23:11:13.787Z,93.73
2022-10-21T23:13:51.148Z,93.69
2022-10-21T23:16:28.063Z,93.13
2022-10-21T23:18:55.528Z,93.86
2022-10-21T23:21:22.498Z,94.06
2022-10-21T23:23:49.397Z,93.32
2022-10-21T23:26:19.365Z,92.82
2022-10-21T23:28:46.306Z,94.23
2022-10-21T23:31:13.232Z,94.30
2022-10-21T23:33:40.597Z,92.55
2022-10-21T23:36:08.127Z,93.78
2022-10-21T23:38:35.143Z,94.46
2022-10-21T23:41:02.102Z,93.28
2022-10-21T23:43:29.231Z,93.63
2022-10-21T23:45:56.203Z,94.58
2022-10-21T23:48:23.579Z,94.73
2022-10-21T23:50:50.610Z,95.14
2022-10-21T23:53:17.722Z,94.65
2022-10-21T23:55:44.781Z,94.64
2022-10-21T23:58:11.721Z,94.27
